Time;durP1;ratioP1;P1;durP2;ratioP2;P2;SDS_P1;SDS_P2;PMS_P1;PMS_P2;Temp;Humidity;BMP_temperature;BMP_pressure;BME280_temperature;BME280_humidity;BME280_pressure;Samples;Min_cycle;Max_cycle;Signal;HPM_P1;HPM_P2
2021/12/30 00:02:24;;;;;;;3.90;2.73;;;2.40;90.90;;;;;;6340023;28;20189;-65
2021/12/30 00:05:25;;;;;;;8.03;4.33;;;2.40;91.80;;;;;;6339892;28;20216;-65
2021/12/30 00:08:25;;;;;;;10.00;4.43;;;2.30;90.80;;;;;;6346921;28;20187;-65
2021/12/30 00:11:26;;;;;;;8.33;4.80;;;2.30;91.50;;;;;;6348184;27;20248;-65
2021/12/30 00:14:27;;;;;;;6.47;3.80;;;2.30;91.70;;;;;;6314711;28;20200;-66
2021/12/30 00:17:28;;;;;;;5.27;4.00;;;2.30;91.60;;;;;;6365087;27;20175;-66
2021/12/30 00:20:29;;;;;;;5.00;3.43;;;2.30;91.60;;;;;;6341737;28;20308;-66
2021/12/30 00:23:30;;;;;;;7.57;4.00;;;2.30;91.00;;;;;;6322673;28;20192;-66
2021/12/30 00:26:31;;;;;;;6.10;4.13;;;2.30;91.80;;;;;;6360227;27;20195;-66
2021/12/30 00:29:33;;;;;;;6.63;3.60;;;2.20;91.40;;;;;;6377979;27;20201;-66
2021/12/30 00:32:34;;;;;;;7.37;3.67;;;2.30;91.80;;;;;;6387418;27;20184;-66
2021/12/30 00:35:35;;;;;;;5.67;3.07;;;2.30;91.70;;;;;;6370053;27;20184;-66
2021/12/30 00:38:38;;;;;;;5.40;3.77;;;2.40;92.00;;;;;;6312650;28;20212;-66
2021/12/30 00:41:39;;;;;;;4.77;3.17;;;2.50;92.10;;;;;;6326674;28;20192;-66
2021/12/30 00:44:39;;;;;;;4.77;3.70;;;2.50;92.10;;;;;;6344449;28;20189;-66
2021/12/30 00:47:40;;;;;;;4.13;3.50;;;2.60;92.00;;;;;;6344360;28;20196;-66
2021/12/30 00:50:43;;;;;;;6.30;3.83;;;2.60;91.60;;;;;;6327457;28;20195;-67
2021/12/30 00:53:43;;;;;;;4.87;3.07;;;2.70;92.10;;;;;;6361572;27;20195;-67
2021/12/30 00:56:45;;;;;;;5.50;3.70;;;2.70;92.00;;;;;;6344817;28;20180;-67
2021/12/30 00:59:46;;;;;;;7.33;4.20;;;2.70;92.10;;;;;;6352154;28;20219;-65
2021/12/30 01:02:47;;;;;;;4.20;3.63;;;2.70;92.20;;;;;;6352217;28;20192;-66
2021/12/30 01:05:48;;;;;;;3.97;3.53;;;2.80;92.50;;;;;;6369620;27;20172;-66
2021/12/30 01:08:49;;;;;;;3.87;3.23;;;2.80;92.00;;;;;;6351672;27;20203;-66
2021/12/30 01:11:50;;;;;;;4.30;3.93;;;2.80;92.00;;;;;;6350437;28;20318;-66
2021/12/30 01:14:51;;;;;;;4.60;2.80;;;2.80;92.20;;;;;;6368406;27;20254;-66
2021/12/30 01:17:58;;;;;;;3.10;2.80;;;2.90;92.20;;;;;;6363711;27;20265;-66
2021/12/30 01:20:59;;;;;;;3.27;2.60;;;2.90;92.10;;;;;;6353445;27;20192;-67
2021/12/30 01:24:03;;;;;;;3.00;2.70;;;2.90;92.30;;;;;;6350804;27;20194;-66
2021/12/30 01:27:04;;;;;;;2.90;2.50;;;2.90;91.90;;;;;;6334824;28;20194;-66
2021/12/30 01:30:07;;;;;;;2.90;2.53;;;2.90;92.00;;;;;;6334234;28;20261;-66
2021/12/30 01:33:07;;;;;;;5.03;3.70;;;2.80;92.20;;;;;;6369433;27;20194;-65
2021/12/30 01:36:08;;;;;;;4.30;3.07;;;2.80;92.20;;;;;;6325641;28;20244;-65
2021/12/30 01:39:09;;;;;;;4.43;3.23;;;2.90;92.40;;;;;;6368333;27;20370;-65
2021/12/30 01:42:11;;;;;;;3.10;2.70;;;3.00;92.30;;;;;;6367659;27;20198;-65
2021/12/30 01:45:12;;;;;;;3.97;3.30;;;2.90;92.10;;;;;;6385949;27;20191;-65
2021/12/30 01:48:14;;;;;;;4.23;3.40;;;3.00;92.30;;;;;;6350706;28;20195;-66
2021/12/30 01:51:15;;;;;;;7.07;4.00;;;3.10;92.20;;;;;;6385329;27;20187;-66
2021/12/30 01:54:16;;;;;;;3.80;3.10;;;3.00;91.80;;;;;;6334200;28;20183;-66
2021/12/30 01:57:17;;;;;;;3.63;2.77;;;3.00;91.90;;;;;;6351203;28;20261;-66
2021/12/30 02:00:21;;;;;;;3.30;3.00;;;3.10;92.20;;;;;;6350312;28;20211;-65
2021/12/30 02:03:22;;;;;;;2.83;2.60;;;3.10;92.00;;;;;;6367569;27;20190;-65
2021/12/30 02:06:23;;;;;;;3.53;2.77;;;3.10;92.10;;;;;;6368583;27;20179;-65
2021/12/30 02:09:24;;;;;;;3.63;2.50;;;3.10;92.10;;;;;;6342226;28;20194;-66
2021/12/30 02:12:26;;;;;;;2.70;2.27;;;3.10;92.10;;;;;;6333525;28;20242;-65
2021/12/30 02:15:26;;;;;;;3.43;2.13;;;3.20;92.10;;;;;;6341871;28;20202;-65
2021/12/30 02:18:31;;;;;;;4.63;3.23;;;3.10;91.80;;;;;;6325143;28;20207;-65
2021/12/30 02:21:32;;;;;;;3.30;2.60;;;3.10;91.80;;;;;;6341876;28;20173;-66
2021/12/30 02:24:34;;;;;;;2.93;2.50;;;3.10;92.20;;;;;;6353817;27;20191;-66
2021/12/30 02:27:35;;;;;;;2.60;2.10;;;3.10;92.40;;;;;;6332084;28;20274;-66
2021/12/30 02:30:37;;;;;;;4.90;3.73;;;3.10;92.50;;;;;;6349521;28;20209;-66
2021/12/30 02:33:39;;;;;;;3.03;2.77;;;3.10;92.90;;;;;;6367119;27;20229;-65
2021/12/30 02:36:40;;;;;;;3.47;2.60;;;3.10;93.30;;;;;;6332007;28;20260;-64
2021/12/30 02:39:43;;;;;;;3.40;3.10;;;3.20;93.30;;;;;;6349798;27;20222;-64
2021/12/30 02:42:44;;;;;;;6.33;3.03;;;3.20;93.30;;;;;;6333013;28;20245;-65
2021/12/30 02:45:46;;;;;;;3.67;2.83;;;3.20;93.20;;;;;;6349944;28;20187;-64
2021/12/30 02:48:47;;;;;;;4.87;3.13;;;3.20;93.20;;;;;;6350015;27;20188;-64
2021/12/30 02:51:48;;;;;;;3.40;2.80;;;3.20;93.20;;;;;;6307851;28;20263;-64
2021/12/30 02:54:49;;;;;;;3.63;2.90;;;3.20;93.00;;;;;;6323902;28;20204;-64
2021/12/30 02:57:50;;;;;;;3.00;2.70;;;3.20;93.30;;;;;;6347537;28;20206;-64
2021/12/30 03:01:01;;;;;;;4.17;3.57;;;3.30;93.20;;;;;;6366544;27;20173;-64
2021/12/30 03:04:03;;;;;;;4.67;3.10;;;3.30;93.40;;;;;;6349790;28;20253;-65
2021/12/30 03:07:04;;;;;;;6.47;4.10;;;3.20;94.10;;;;;;6365724;27;20191;-65
2021/12/30 03:10:12;;;;;;;4.20;3.43;;;3.10;94.20;;;;;;6366179;27;20242;-65
2021/12/30 03:13:15;;;;;;;4.93;3.20;;;3.10;94.30;;;;;;6332466;28;20195;-65
2021/12/30 03:16:29;;;;;;;4.53;3.10;;;3.10;94.40;;;;;;6348305;28;20188;-65
2021/12/30 03:19:30;;;;;;;4.03;3.57;;;3.10;94.40;;;;;;6350126;28;20288;-65
2021/12/30 03:22:30;;;;;;;4.63;3.03;;;3.10;94.50;;;;;;6340484;28;20196;-65
2021/12/30 03:25:31;;;;;;;6.30;3.20;;;3.20;94.50;;;;;;6341546;28;20231;-65
2021/12/30 03:28:33;;;;;;;5.17;3.87;;;3.20;94.50;;;;;;6358054;27;20184;-65
2021/12/30 03:31:34;;;;;;;4.67;3.50;;;3.30;94.40;;;;;;6340487;28;20204;-65
2021/12/30 03:34:35;;;;;;;3.47;3.17;;;3.30;94.40;;;;;;6340384;28;20208;-65
2021/12/30 03:37:36;;;;;;;3.67;3.00;;;3.30;94.40;;;;;;6328425;28;20192;-65
2021/12/30 03:40:37;;;;;;;3.90;2.57;;;3.40;94.70;;;;;;6383328;27;20215;-66
2021/12/30 03:43:39;;;;;;;5.53;2.77;;;3.40;95.00;;;;;;6364989;27;20211;-66
2021/12/30 03:46:39;;;;;;;4.47;3.07;;;3.40;95.20;;;;;;6365909;27;20183;-65
2021/12/30 03:49:45;;;;;;;4.53;3.20;;;3.40;95.40;;;;;;6365776;27;20184;-64
2021/12/30 03:52:50;;;;;;;4.27;3.07;;;3.50;95.40;;;;;;6331004;28;20199;-65
2021/12/30 03:55:51;;;;;;;7.00;4.43;;;3.60;95.50;;;;;;6382892;27;20188;-64
2021/12/30 03:58:52;;;;;;;4.73;2.80;;;3.60;95.60;;;;;;6350130;28;20216;-65
2021/12/30 04:01:53;;;;;;;4.33;2.90;;;3.60;95.60;;;;;;6310441;28;20223;-65
2021/12/30 04:04:54;;;;;;;4.87;3.47;;;3.60;95.60;;;;;;6334610;28;20183;-65
2021/12/30 04:07:55;;;;;;;4.67;3.60;;;3.70;95.60;;;;;;6370306;27;20190;-64
2021/12/30 04:10:57;;;;;;;6.43;2.93;;;3.80;95.60;;;;;;6353638;28;20243;-66
2021/12/30 04:13:57;;;;;;;3.90;3.10;;;3.70;95.50;;;;;;6369777;27;20195;-66
2021/12/30 04:16:58;;;;;;;4.50;3.00;;;3.70;95.40;;;;;;6369903;27;20194;-66
2021/12/30 04:19:59;;;;;;;7.53;3.60;;;3.70;95.40;;;;;;6353335;28;20218;-66
2021/12/30 04:23:00;;;;;;;3.93;3.20;;;3.80;95.40;;;;;;6335260;28;20195;-66
2021/12/30 04:26:01;;;;;;;3.77;3.27;;;3.70;95.20;;;;;;6353454;28;20196;-67
2021/12/30 04:29:02;;;;;;;4.00;2.87;;;3.70;95.00;;;;;;6327061;28;20200;-66
2021/12/30 04:32:03;;;;;;;4.13;2.40;;;3.70;95.00;;;;;;6327793;28;20274;-66
2021/12/30 04:35:06;;;;;;;2.73;2.37;;;3.60;94.80;;;;;;6336025;28;20228;-66
2021/12/30 04:38:07;;;;;;;3.33;2.47;;;3.60;94.60;;;;;;6370664;27;20188;-66
2021/12/30 04:41:08;;;;;;;4.13;3.03;;;3.50;94.50;;;;;;6345006;27;20222;-66
2021/12/30 04:44:09;;;;;;;4.00;2.90;;;3.50;94.50;;;;;;6335872;28;20187;-66
2021/12/30 04:47:11;;;;;;;3.83;2.83;;;3.50;94.50;;;;;;6369364;27;20283;-66
2021/12/30 04:50:13;;;;;;;2.57;2.30;;;3.40;94.50;;;;;;6369565;27;20281;-66
2021/12/30 04:53:15;;;;;;;4.03;3.20;;;3.40;94.40;;;;;;6369547;27;20215;-66
2021/12/30 04:56:15;;;;;;;5.03;3.30;;;3.40;94.40;;;;;;6369943;27;20180;-66
2021/12/30 04:59:17;;;;;;;5.50;4.27;;;3.40;94.40;;;;;;6369577;27;20215;-66
2021/12/30 05:02:17;;;;;;;3.50;3.07;;;3.30;94.30;;;;;;6369462;27;20178;-66
2021/12/30 05:05:18;;;;;;;6.73;4.50;;;3.30;94.40;;;;;;6368771;27;20202;-66
2021/12/30 05:08:22;;;;;;;5.27;3.37;;;3.30;94.40;;;;;;6369642;27;20192;-64
2021/12/30 05:11:22;;;;;;;4.43;3.33;;;3.30;94.50;;;;;;6385720;27;20238;-64
2021/12/30 05:14:23;;;;;;;4.77;3.47;;;3.30;94.30;;;;;;6335054;28;20187;-64
2021/12/30 05:17:28;;;;;;;7.30;4.10;;;3.20;94.20;;;;;;6368762;27;20279;-64
2021/12/30 05:20:29;;;;;;;4.20;3.67;;;3.20;94.30;;;;;;6369302;27;20299;-65
2021/12/30 05:23:31;;;;;;;3.50;3.20;;;3.10;94.30;;;;;;6362015;27;20188;-65
2021/12/30 05:26:31;;;;;;;4.47;3.43;;;3.10;94.20;;;;;;6331419;28;20192;-64
2021/12/30 05:29:32;;;;;;;4.47;3.63;;;3.00;94.00;;;;;;6334490;28;20286;-64
2021/12/30 05:32:34;;;;;;;6.80;4.73;;;3.00;93.80;;;;;;6349334;27;20283;-63
2021/12/30 05:35:35;;;;;;;5.63;3.87;;;2.90;94.00;;;;;;6354573;27;20283;-63
2021/12/30 05:38:36;;;;;;;5.10;3.90;;;3.00;94.30;;;;;;6352845;27;20703;-64
2021/12/30 05:41:36;;;;;;;4.97;3.80;;;3.00;94.40;;;;;;6339398;28;20187;-64
2021/12/30 05:44:37;;;;;;;4.60;3.33;;;3.00;94.40;;;;;;6354125;27;20215;-64
2021/12/30 05:47:38;;;;;;;5.77;4.07;;;3.00;94.40;;;;;;6356752;27;20192;-64
2021/12/30 05:50:39;;;;;;;5.90;4.10;;;3.00;94.20;;;;;;6350934;27;20258;-68
2021/12/30 05:53:40;;;;;;;8.07;4.83;;;3.00;94.30;;;;;;6373694;27;20251;-68
2021/12/30 05:56:41;;;;;;;7.33;4.73;;;2.90;94.20;;;;;;6365533;27;20287;-65
2021/12/30 05:59:42;;;;;;;6.23;4.47;;;2.80;94.00;;;;;;6368461;27;20215;-64
2021/12/30 06:02:44;;;;;;;6.13;4.30;;;2.80;94.00;;;;;;6346326;27;20189;-65
2021/12/30 06:05:46;;;;;;;8.43;5.00;;;2.80;94.00;;;;;;6333776;28;20192;-65
2021/12/30 06:08:47;;;;;;;7.33;5.30;;;2.80;94.00;;;;;;6320709;28;20193;-65
2021/12/30 06:11:48;;;;;;;6.50;5.80;;;2.80;94.10;;;;;;6353076;27;20235;-65
2021/12/30 06:14:49;;;;;;;6.63;5.93;;;2.80;94.10;;;;;;6367566;27;20191;-64
2021/12/30 06:17:50;;;;;;;6.70;5.00;;;2.60;93.80;;;;;;6367829;27;20223;-63
2021/12/30 06:20:51;;;;;;;6.13;5.23;;;2.60;93.70;;;;;;6367635;27;20222;-64
2021/12/30 06:23:52;;;;;;;7.83;5.40;;;2.60;93.80;;;;;;6361120;27;20188;-64
2021/12/30 06:26:53;;;;;;;8.43;5.97;;;2.60;93.50;;;;;;6350023;28;20190;-64
2021/12/30 06:29:53;;;;;;;7.93;6.37;;;2.60;93.70;;;;;;6323667;28;20199;-64
2021/12/30 06:32:54;;;;;;;9.30;7.67;;;2.60;93.90;;;;;;6353232;27;20193;-64
2021/12/30 06:35:55;;;;;;;7.93;6.57;;;2.60;94.00;;;;;;6352988;27;20208;-64
2021/12/30 06:38:56;;;;;;;6.37;5.40;;;2.60;93.80;;;;;;6358399;27;20218;-63
2021/12/30 06:41:57;;;;;;;9.30;5.87;;;2.60;93.80;;;;;;6361436;27;20202;-65
2021/12/30 06:44:58;;;;;;;7.47;5.20;;;2.60;93.90;;;;;;6365794;27;20211;-66
2021/12/30 06:47:59;;;;;;;7.23;5.57;;;2.60;93.80;;;;;;6355133;27;20200;-66
2021/12/30 06:51:03;;;;;;;8.50;4.87;;;2.60;93.90;;;;;;6308747;28;20196;-66
2021/12/30 06:54:05;;;;;;;6.57;4.60;;;2.50;93.80;;;;;;6368703;27;20241;-65
2021/12/30 06:57:06;;;;;;;5.53;4.07;;;2.60;94.10;;;;;;6338412;28;20199;-65
2021/12/30 07:00:10;;;;;;;6.17;4.43;;;2.60;94.10;;;;;;6311411;28;20364;-64
2021/12/30 07:03:11;;;;;;;5.30;4.03;;;2.40;93.40;;;;;;6361584;27;20194;-65
2021/12/30 07:06:12;;;;;;;6.10;4.67;;;2.50;93.70;;;;;;6354612;27;20192;-66
2021/12/30 07:09:13;;;;;;;6.80;5.33;;;2.60;94.10;;;;;;6306953;28;20196;-66
2021/12/30 07:12:14;;;;;;;8.70;5.97;;;2.60;94.00;;;;;;6306875;28;20236;-66
2021/12/30 07:15:15;;;;;;;5.87;4.80;;;2.70;94.20;;;;;;6324772;28;20199;-66
2021/12/30 07:18:16;;;;;;;7.77;5.83;;;2.70;94.20;;;;;;6323622;28;20195;-66
2021/12/30 07:21:17;;;;;;;6.57;5.13;;;2.70;94.10;;;;;;6306572;28;20192;-64
2021/12/30 07:24:22;;;;;;;7.17;5.90;;;2.60;93.70;;;;;;6333248;28;20191;-64
2021/12/30 07:27:23;;;;;;;6.77;4.60;;;2.70;94.20;;;;;;6357124;27;20196;-65
2021/12/30 07:30:25;;;;;;;6.77;5.23;;;2.70;94.30;;;;;;6383141;27;20199;-66
2021/12/30 07:33:26;;;;;;;6.80;4.73;;;2.80;94.30;;;;;;6365587;27;20199;-65
2021/12/30 07:36:27;;;;;;;8.93;4.97;;;2.80;94.20;;;;;;6346530;27;20223;-66
2021/12/30 07:39:28;;;;;;;5.27;4.50;;;2.80;94.10;;;;;;6347359;28;20235;-66
2021/12/30 07:42:29;;;;;;;4.70;3.73;;;2.80;94.00;;;;;;6356924;27;20195;-66
2021/12/30 07:45:30;;;;;;;6.93;4.80;;;2.80;93.90;;;;;;6355947;27;20240;-66
2021/12/30 07:48:30;;;;;;;5.83;4.30;;;2.80;93.70;;;;;;6357322;27;20224;-66
2021/12/30 07:51:31;;;;;;;6.53;4.93;;;2.70;93.80;;;;;;6349885;27;20192;-65
2021/12/30 07:54:33;;;;;;;7.37;5.50;;;2.80;93.90;;;;;;6323047;28;20192;-66
2021/12/30 07:57:35;;;;;;;7.33;4.73;;;2.70;93.60;;;;;;6321473;28;20199;-66
2021/12/30 08:00:36;;;;;;;6.43;5.00;;;2.70;94.00;;;;;;6332226;28;20215;-66
2021/12/30 08:03:37;;;;;;;9.33;6.30;;;2.80;94.10;;;;;;6326279;28;20272;-66
2021/12/30 08:06:37;;;;;;;6.23;5.10;;;2.70;93.60;;;;;;6365922;27;20183;-66
2021/12/30 08:09:38;;;;;;;7.73;5.27;;;2.70;93.80;;;;;;6349289;28;20200;-67
2021/12/30 08:12:41;;;;;;;8.37;5.57;;;2.80;94.40;;;;;;6348330;27;20240;-66
2021/12/30 08:15:43;;;;;;;6.43;5.30;;;2.80;94.50;;;;;;6331276;28;20211;-66
2021/12/30 08:18:44;;;;;;;5.07;4.10;;;2.90;94.40;;;;;;6347350;28;20216;-66
2021/12/30 08:21:45;;;;;;;6.50;5.30;;;3.00;94.40;;;;;;6365320;27;20180;-66
2021/12/30 08:24:46;;;;;;;4.90;4.20;;;3.00;94.20;;;;;;6364612;27;20191;-65
2021/12/30 08:27:48;;;;;;;5.50;4.90;;;3.00;94.20;;;;;;6365896;27;20189;-66
2021/12/30 08:30:49;;;;;;;5.67;4.50;;;3.10;94.30;;;;;;6337381;28;20269;-67
2021/12/30 08:33:49;;;;;;;5.63;4.13;;;3.10;94.40;;;;;;6338659;28;20192;-68
2021/12/30 08:36:50;;;;;;;7.57;5.17;;;3.10;94.30;;;;;;6365577;27;20191;-67
2021/12/30 08:39:51;;;;;;;7.17;6.20;;;3.30;94.60;;;;;;6359540;28;20304;-68
2021/12/30 08:42:53;;;;;;;10.30;7.23;;;3.30;94.60;;;;;;6346161;28;20215;-68
2021/12/30 08:45:53;;;;;;;8.53;5.63;;;3.30;94.70;;;;;;6350583;27;20200;-67
2021/12/30 08:48:54;;;;;;;9.67;6.87;;;3.40;94.60;;;;;;6321694;28;20254;-68
2021/12/30 08:51:55;;;;;;;9.90;7.27;;;3.40;94.80;;;;;;6322447;28;20304;-67
2021/12/30 08:54:59;;;;;;;10.13;6.37;;;3.50;94.80;;;;;;6350771;27;20203;-67
2021/12/30 08:58:00;;;;;;;7.47;6.33;;;3.60;94.80;;;;;;6325421;28;20197;-68
2021/12/30 09:01:01;;;;;;;11.00;7.97;;;3.60;94.90;;;;;;6345042;28;20241;-67
2021/12/30 09:04:02;;;;;;;9.03;6.57;;;3.80;95.10;;;;;;6331984;28;20194;-67
2021/12/30 09:07:04;;;;;;;12.27;9.67;;;3.80;95.00;;;;;;6352840;27;20199;-67
2021/12/30 09:10:08;;;;;;;14.00;9.23;;;3.90;95.10;;;;;;6347715;28;20257;-68
2021/12/30 09:13:09;;;;;;;18.50;10.93;;;3.90;95.00;;;;;;6381225;27;20280;-67
2021/12/30 09:16:10;;;;;;;16.50;9.33;;;4.10;95.40;;;;;;6325853;28;20190;-68
2021/12/30 09:19:11;;;;;;;14.50;8.47;;;4.20;95.40;;;;;;6331269;28;20223;-68
2021/12/30 09:22:11;;;;;;;12.33;9.37;;;4.30;95.40;;;;;;6340892;28;20207;-68
2021/12/30 09:25:12;;;;;;;13.97;9.43;;;4.30;95.50;;;;;;6359707;27;20187;-68
2021/12/30 09:28:14;;;;;;;10.33;7.63;;;4.40;95.30;;;;;;6382433;27;20187;-68
2021/12/30 09:31:15;;;;;;;18.60;10.03;;;4.50;95.40;;;;;;6339286;28;20195;-67
2021/12/30 09:34:17;;;;;;;10.43;7.53;;;4.60;95.30;;;;;;6325930;28;20196;-67
2021/12/30 09:37:18;;;;;;;13.70;8.93;;;4.70;95.10;;;;;;6341669;28;20192;-67
2021/12/30 09:40:19;;;;;;;14.27;9.87;;;4.80;95.20;;;;;;6358767;27;20216;-66
2021/12/30 09:43:20;;;;;;;12.57;8.27;;;4.80;95.10;;;;;;6355433;27;20196;-67
2021/12/30 09:46:22;;;;;;;16.27;9.77;;;4.80;95.10;;;;;;6369695;27;20199;-67
2021/12/30 09:49:24;;;;;;;11.83;8.63;;;4.90;95.20;;;;;;6325797;28;20199;-67
2021/12/30 09:52:25;;;;;;;15.37;9.33;;;5.00;95.20;;;;;;6363793;27;20268;-67
2021/12/30 09:55:26;;;;;;;14.40;8.77;;;5.10;95.00;;;;;;6360949;27;20209;-67
2021/12/30 09:58:29;;;;;;;12.57;8.30;;;5.20;94.90;;;;;;6378143;27;20222;-67
2021/12/30 10:01:30;;;;;;;13.17;8.67;;;5.20;94.90;;;;;;6377358;27;20196;-67
2021/12/30 10:04:33;;;;;;;13.87;9.77;;;5.30;94.80;;;;;;6335778;28;20215;-67
2021/12/30 10:07:34;;;;;;;14.30;12.17;;;5.30;94.80;;;;;;6367989;27;20195;-68
2021/12/30 10:10:38;;;;;;;14.60;10.87;;;5.40;94.80;;;;;;6322232;28;20250;-68
2021/12/30 10:14:00;;;;;;;12.67;10.07;;;5.60;93.20;;;;;;6335793;28;20245;-68
2021/12/30 10:17:33;;;;;;;13.27;10.30;;;5.60;92.90;;;;;;6356778;27;20200;-68
2021/12/30 10:20:37;;;;;;;14.83;10.50;;;5.70;92.80;;;;;;6282971;28;20242;-68
2021/12/30 10:23:48;;;;;;;11.63;8.47;;;5.60;93.20;;;;;;6313835;28;20207;-68
2021/12/30 10:26:55;;;;;;;12.07;10.30;;;5.70;93.40;;;;;;6350048;27;20246;-68
2021/12/30 10:29:57;;;;;;;13.63;10.60;;;5.70;93.40;;;;;;6329787;28;20292;-66
2021/12/30 10:33:22;;;;;;;14.13;11.10;;;5.80;93.40;;;;;;6326706;28;20197;-67
2021/12/30 10:36:29;;;;;;;13.47;10.97;;;5.80;93.30;;;;;;6313251;28;20184;-67
2021/12/30 10:39:33;;;;;;;13.07;10.93;;;5.90;93.60;;;;;;6337225;28;20259;-67
2021/12/30 10:42:34;;;;;;;14.07;10.90;;;5.90;93.60;;;;;;6323089;28;20181;-67
2021/12/30 10:45:34;;;;;;;13.80;11.27;;;6.00;93.80;;;;;;6309054;28;20191;-67
2021/12/30 10:48:46;;;;;;;12.20;10.07;;;6.10;93.50;;;;;;6312893;28;20188;-67
2021/12/30 10:51:51;;;;;;;10.10;8.90;;;6.10;93.40;;;;;;6346208;28;20191;-67
2021/12/30 10:54:53;;;;;;;14.80;10.27;;;6.20;93.60;;;;;;6348204;27;20200;-67
2021/12/30 10:57:56;;;;;;;18.70;10.50;;;6.20;93.90;;;;;;6305572;28;20251;-68
2021/12/30 11:01:18;;;;;;;15.10;9.13;;;6.40;93.40;;;;;;6332660;28;20223;-67
2021/12/30 11:04:20;;;;;;;14.50;11.03;;;6.70;91.70;;;;;;6327532;28;20184;-68
2021/12/30 11:07:27;;;;;;;12.70;10.23;;;6.80;91.00;;;;;;6311331;28;20221;-67
2021/12/30 11:10:32;;;;;;;13.83;10.33;;;6.80;90.40;;;;;;6328816;28;20231;-67
2021/12/30 11:13:33;;;;;;;12.87;10.03;;;6.90;91.20;;;;;;6308810;28;20196;-67
2021/12/30 11:17:04;;;;;;;11.63;9.60;;;7.10;91.10;;;;;;6321664;28;20203;-68
2021/12/30 11:20:10;;;;;;;11.13;9.57;;;7.20;89.10;;;;;;6335073;28;20218;-67
2021/12/30 11:23:13;;;;;;;11.70;8.93;;;7.30;88.10;;;;;;6321567;28;20242;-67
2021/12/30 11:26:15;;;;;;;11.47;8.60;;;7.30;87.60;;;;;;6340112;28;20200;-67
2021/12/30 11:29:16;;;;;;;9.20;8.03;;;7.30;88.40;;;;;;6338046;28;20202;-67
2021/12/30 11:32:20;;;;;;;11.87;9.47;;;7.30;86.80;;;;;;6354535;27;20203;-67
2021/12/30 11:35:24;;;;;;;14.27;9.10;;;7.30;89.10;;;;;;6322941;28;20188;-67
2021/12/30 11:38:24;;;;;;;11.23;8.10;;;7.40;89.30;;;;;;6333429;28;20191;-67
2021/12/30 11:41:28;;;;;;;9.43;6.50;;;7.40;88.80;;;;;;6341161;27;20200;-67
2021/12/30 11:44:49;;;;;;;6.57;5.17;;;7.50;89.10;;;;;;6337105;28;20191;-65
2021/12/30 11:47:50;;;;;;;5.67;4.20;;;7.70;89.30;;;;;;6378501;27;20195;-66
2021/12/30 11:51:03;;;;;;;5.80;3.93;;;7.80;85.30;;;;;;6345864;28;20256;-66
2021/12/30 11:54:30;;;;;;;4.37;3.97;;;7.80;87.50;;;;;;6378609;27;20225;-67
2021/12/30 11:57:34;;;;;;;4.00;3.60;;;7.80;86.80;;;;;;6326126;28;20293;-67
2021/12/30 12:00:36;;;;;;;6.40;4.20;;;8.00;86.20;;;;;;6372119;27;20306;-67
2021/12/30 12:03:40;;;;;;;4.77;4.27;;;8.20;84.20;;;;;;6350525;28;20230;-67
2021/12/30 12:06:55;;;;;;;6.63;4.43;;;8.10;84.70;;;;;;6322463;28;20208;-67
2021/12/30 12:10:15;;;;;;;5.37;4.77;;;8.10;86.00;;;;;;6379674;27;20188;-67
2021/12/30 12:13:36;;;;;;;5.80;5.20;;;8.10;84.90;;;;;;6358370;28;20208;-67
2021/12/30 12:16:58;;;;;;;4.77;4.27;;;8.20;86.20;;;;;;6362622;28;20195;-67
2021/12/30 12:20:15;;;;;;;5.77;4.37;;;8.20;86.50;;;;;;6346287;28;20220;-66
2021/12/30 12:23:32;;;;;;;5.53;4.77;;;8.20;85.20;;;;;;6368716;27;20185;-66
2021/12/30 12:26:39;;;;;;;5.73;4.93;;;8.30;84.30;;;;;;6342258;28;20279;-66
2021/12/30 12:29:51;;;;;;;7.67;5.13;;;8.30;84.30;;;;;;6332725;28;20212;-66
2021/12/30 12:32:52;;;;;;;6.67;5.00;;;8.40;83.20;;;;;;6340196;28;20197;-67
2021/12/30 12:35:53;;;;;;;7.20;5.40;;;8.40;85.00;;;;;;6340423;28;20211;-67
2021/12/30 12:38:54;;;;;;;5.37;4.73;;;8.40;84.10;;;;;;6328514;28;20230;-67
2021/12/30 12:41:54;;;;;;;6.27;5.40;;;8.40;83.40;;;;;;6356957;27;20203;-67
2021/12/30 12:45:22;;;;;;;5.20;4.60;;;8.50;84.60;;;;;;6340728;28;20199;-67
2021/12/30 12:48:25;;;;;;;8.77;6.60;;;8.70;83.20;;;;;;6325927;28;20227;-67
2021/12/30 12:51:27;;;;;;;7.00;5.80;;;8.80;81.50;;;;;;6325783;28;20273;-66
2021/12/30 12:54:48;;;;;;;8.97;5.83;;;8.70;82.60;;;;;;6323412;28;20200;-66
2021/12/30 12:57:49;;;;;;;7.97;4.93;;;8.80;82.40;;;;;;6331995;28;20193;-66
2021/12/30 13:00:50;;;;;;;7.67;5.33;;;8.70;79.00;;;;;;6341162;28;20224;-67
2021/12/30 13:03:52;;;;;;;4.90;4.20;;;8.60;83.30;;;;;;6325918;28;20189;-66
2021/12/30 13:06:53;;;;;;;5.87;4.00;;;8.80;80.10;;;;;;6316444;28;20274;-67
2021/12/30 13:09:54;;;;;;;4.80;4.23;;;8.70;79.90;;;;;;6351897;27;20203;-67
2021/12/30 13:13:01;;;;;;;6.30;4.60;;;8.60;81.70;;;;;;6366299;27;20247;-65
2021/12/30 13:16:06;;;;;;;5.07;4.23;;;8.80;80.00;;;;;;6366510;27;20208;-65
2021/12/30 13:19:18;;;;;;;6.03;4.87;;;8.80;79.40;;;;;;6383485;27;20276;-65
2021/12/30 13:22:23;;;;;;;4.83;4.33;;;8.70;81.60;;;;;;6332025;28;20647;-66
2021/12/30 13:25:23;;;;;;;6.83;4.53;;;8.70;81.30;;;;;;6328117;28;20180;-66
2021/12/30 13:28:25;;;;;;;4.70;4.20;;;8.70;81.40;;;;;;6345431;27;20213;-66
2021/12/30 13:31:27;;;;;;;8.33;4.73;;;8.60;82.00;;;;;;6341474;28;20195;-66
2021/12/30 13:34:28;;;;;;;6.50;4.80;;;8.70;80.90;;;;;;6344604;27;20223;-66
2021/12/30 13:37:31;;;;;;;7.93;5.13;;;8.50;82.50;;;;;;6325475;28;20192;-66
2021/12/30 13:40:43;;;;;;;7.37;5.23;;;8.40;82.20;;;;;;6339838;28;20245;-67
2021/12/30 13:43:45;;;;;;;5.47;4.87;;;8.40;84.80;;;;;;6383607;27;20188;-66
2021/12/30 13:46:46;;;;;;;6.40;5.20;;;8.40;85.50;;;;;;6369332;27;20185;-66
2021/12/30 13:49:51;;;;;;;5.93;5.00;;;8.30;86.10;;;;;;6340415;28;20195;-66
2021/12/30 13:52:51;;;;;;;5.83;4.73;;;8.40;85.70;;;;;;6359966;27;20204;-66
2021/12/30 13:55:58;;;;;;;6.73;5.40;;;8.30;86.30;;;;;;6331238;28;20204;-66
2021/12/30 13:59:06;;;;;;;5.87;4.83;;;8.30;86.50;;;;;;6352052;27;20204;-66
2021/12/30 14:02:11;;;;;;;5.37;4.53;;;8.30;86.40;;;;;;6382247;27;20326;-66
2021/12/30 14:05:14;;;;;;;5.57;4.40;;;8.40;87.40;;;;;;6308868;28;20189;-66
2021/12/30 14:08:21;;;;;;;5.70;5.20;;;8.30;83.70;;;;;;6338251;28;20227;-66
2021/12/30 14:11:35;;;;;;;5.10;4.60;;;8.30;87.00;;;;;;6371674;27;20262;-66
2021/12/30 14:14:37;;;;;;;6.60;5.03;;;8.30;87.10;;;;;;6339167;28;20192;-66
2021/12/30 14:17:43;;;;;;;5.27;4.77;;;8.30;87.30;;;;;;6352429;27;20200;-66
2021/12/30 14:20:44;;;;;;;6.77;5.03;;;8.30;86.70;;;;;;6363070;27;20216;-66
2021/12/30 14:23:52;;;;;;;6.77;5.03;;;8.30;84.90;;;;;;6363201;27;20187;-66
2021/12/30 14:26:58;;;;;;;5.87;5.27;;;8.30;87.30;;;;;;6346488;27;20187;-66
2021/12/30 14:30:12;;;;;;;6.17;5.10;;;8.30;86.80;;;;;;6341129;28;20188;-66
2021/12/30 14:33:15;;;;;;;5.63;5.13;;;8.30;86.00;;;;;;6364958;27;20223;-67
2021/12/30 14:36:18;;;;;;;5.73;5.00;;;8.20;86.90;;;;;;6363261;27;20290;-66
2021/12/30 14:39:26;;;;;;;6.00;5.20;;;8.10;87.00;;;;;;6342165;28;20208;-66
2021/12/30 14:42:32;;;;;;;6.80;4.97;;;8.00;87.40;;;;;;6327508;28;20193;-66
2021/12/30 14:45:39;;;;;;;6.43;4.83;;;7.90;87.60;;;;;;6341560;28;20189;-67
2021/12/30 14:48:39;;;;;;;5.30;4.57;;;7.80;87.60;;;;;;6367329;27;20192;-67
2021/12/30 14:51:40;;;;;;;6.23;4.87;;;7.80;87.50;;;;;;6331408;28;20192;-67
2021/12/30 14:54:43;;;;;;;6.20;5.27;;;7.80;87.90;;;;;;6338829;27;20209;-67
2021/12/30 14:57:44;;;;;;;7.67;5.80;;;7.80;88.10;;;;;;6322602;28;20295;-65
2021/12/30 15:00:49;;;;;;;6.10;5.17;;;7.80;88.70;;;;;;6328576;28;20216;-65
2021/12/30 15:03:50;;;;;;;6.20;5.57;;;7.80;88.70;;;;;;6323133;28;20196;-65
2021/12/30 15:06:51;;;;;;;7.47;5.47;;;7.80;88.60;;;;;;6338444;28;20294;-65
2021/12/30 15:09:54;;;;;;;6.07;4.70;;;7.80;88.80;;;;;;6363760;27;20191;-66
2021/12/30 15:12:56;;;;;;;6.07;4.70;;;7.70;89.10;;;;;;6364465;27;20248;-66
2021/12/30 15:15:56;;;;;;;6.33;5.17;;;7.60;89.20;;;;;;6350456;27;20196;-66
2021/12/30 15:18:57;;;;;;;5.77;5.17;;;7.60;89.50;;;;;;6339306;28;20219;-66
2021/12/30 15:21:58;;;;;;;11.00;8.17;;;7.60;89.40;;;;;;6363295;27;20288;-66
2021/12/30 15:24:59;;;;;;;11.57;7.53;;;7.50;88.50;;;;;;6356817;27;20281;-66
2021/12/30 15:28:01;;;;;;;9.07;6.33;;;7.50;88.70;;;;;;6374856;27;20187;-66
2021/12/30 15:31:01;;;;;;;9.07;7.00;;;7.50;88.70;;;;;;6323362;28;20218;-66
2021/12/30 15:34:02;;;;;;;9.90;6.57;;;7.50;89.40;;;;;;6337267;28;20195;-66
2021/12/30 15:37:06;;;;;;;9.33;7.03;;;7.50;89.60;;;;;;6339931;28;20206;-66
2021/12/30 15:40:08;;;;;;;9.07;7.10;;;7.50;90.00;;;;;;6361613;27;20218;-67
2021/12/30 15:43:09;;;;;;;8.97;6.53;;;7.50;89.50;;;;;;6362777;27;20202;-66
2021/12/30 15:46:09;;;;;;;9.63;5.90;;;7.40;89.80;;;;;;6341456;28;20193;-67
2021/12/30 15:49:11;;;;;;;7.53;5.90;;;7.40;89.70;;;;;;6340673;28;20271;-66
2021/12/30 15:52:14;;;;;;;6.27;5.07;;;7.40;89.40;;;;;;6362322;27;20194;-66
2021/12/30 15:55:16;;;;;;;8.00;5.93;;;7.40;89.40;;;;;;6320554;28;20196;-66
2021/12/30 15:58:17;;;;;;;6.10;5.50;;;7.30;89.20;;;;;;6333426;28;20211;-66
2021/12/30 16:01:18;;;;;;;6.17;5.57;;;7.30;90.10;;;;;;6320830;28;20674;-66
2021/12/30 16:04:19;;;;;;;5.73;5.07;;;7.40;89.90;;;;;;6351321;28;20191;-66